sensor_id;sensor_type;location;lat;lon;timestamp;temperature;humidity
52203;DHT22;38173;52.850;6.970;2024-01-25T00:01:42;7.30;99.90
52203;DHT22;38173;52.850;6.970;2024-01-25T00:04:07;7.20;99.90
52203;DHT22;38173;52.850;6.970;2024-01-25T00:06:34;7.20;99.90
52203;DHT22;38173;52.850;6.970;2024-01-25T00:09:00;7.20;99.90
52203;DHT22;38173;52.850;6.970;2024-01-25T00:11:26;7.20;99.90
52203;DHT22;38173;52.850;6.970;2024-01-25T00:13:52;7.10;99.90
52203;DHT22;38173;52.850;6.970;2024-01-25T00:16:18;7.10;99.90
52203;DHT22;38173;52.850;6.970;2024-01-25T00:18:43;7.10;99.90
52203;DHT22;38173;52.850;6.970;2024-01-25T00:21:09;7.10;99.90
52203;DHT22;38173;52.850;6.970;2024-01-25T00:23:34;7.20;99.90
52203;DHT22;38173;52.850;6.970;2024-01-25T00:26:00;7.20;99.90
52203;DHT22;38173;52.850;6.970;2024-01-25T00:28:26;7.20;99.90
52203;DHT22;38173;52.850;6.970;2024-01-25T00:30:53;7.30;99.90
52203;DHT22;38173;52.850;6.970;2024-01-25T00:33:19;7.30;99.90
52203;DHT22;38173;52.850;6.970;2024-01-25T00:35:45;7.30;99.90
52203;DHT22;38173;52.850;6.970;2024-01-25T00:38:11;7.30;99.90
52203;DHT22;38173;52.850;6.970;2024-01-25T00:40:37;7.30;99.90
52203;DHT22;38173;52.850;6.970;2024-01-25T00:43:03;7.30;99.90
52203;DHT22;38173;52.850;6.970;2024-01-25T00:45:29;7.30;99.90
52203;DHT22;38173;52.850;6.970;2024-01-25T00:47:55;7.30;99.90
52203;DHT22;38173;52.850;6.970;2024-01-25T00:50:21;7.30;99.90
52203;DHT22;38173;52.850;6.970;2024-01-25T00:52:49;7.30;99.90
52203;DHT22;38173;52.850;6.970;2024-01-25T00:55:15;7.20;99.90
52203;DHT22;38173;52.850;6.970;2024-01-25T00:57:41;7.10;99.90
52203;DHT22;38173;52.850;6.970;2024-01-25T01:00:07;7.10;99.90
52203;DHT22;38173;52.850;6.970;2024-01-25T01:02:44;7.00;99.90
52203;DHT22;38173;52.850;6.970;2024-01-25T01:05:11;7.00;99.90
52203;DHT22;38173;52.850;6.970;2024-01-25T01:07:38;6.90;99.90
52203;DHT22;38173;52.850;6.970;2024-01-25T01:10:05;6.90;99.90
52203;DHT22;38173;52.850;6.970;2024-01-25T01:12:31;6.90;99.90
52203;DHT22;38173;52.850;6.970;2024-01-25T01:14:56;6.80;99.90
52203;DHT22;38173;52.850;6.970;2024-01-25T01:17:22;6.80;99.90
52203;DHT22;38173;52.850;6.970;2024-01-25T01:19:48;6.80;99.90
52203;DHT22;38173;52.850;6.970;2024-01-25T01:22:13;6.70;99.90
52203;DHT22;38173;52.850;6.970;2024-01-25T01:24:39;6.70;99.90
52203;DHT22;38173;52.850;6.970;2024-01-25T01:27:05;6.70;99.90
52203;DHT22;38173;52.850;6.970;2024-01-25T01:29:30;6.70;99.90
52203;DHT22;38173;52.850;6.970;2024-01-25T01:31:56;6.70;99.90
52203;DHT22;38173;52.850;6.970;2024-01-25T01:34:22;6.60;99.90
52203;DHT22;38173;52.850;6.970;2024-01-25T01:36:47;6.60;99.90
52203;DHT22;38173;52.850;6.970;2024-01-25T01:39:13;6.60;99.90
52203;DHT22;38173;52.850;6.970;2024-01-25T01:41:39;6.60;99.90
52203;DHT22;38173;52.850;6.970;2024-01-25T01:44:04;6.60;99.90
52203;DHT22;38173;52.850;6.970;2024-01-25T01:46:37;6.50;99.90
52203;DHT22;38173;52.850;6.970;2024-01-25T01:49:04;6.50;99.90
52203;DHT22;38173;52.850;6.970;2024-01-25T01:51:30;6.40;99.90
52203;DHT22;38173;52.850;6.970;2024-01-25T01:53:57;6.40;99.90
52203;DHT22;38173;52.850;6.970;2024-01-25T01:56:27;6.30;99.90
52203;DHT22;38173;52.850;6.970;2024-01-25T01:58:57;6.30;99.90
52203;DHT22;38173;52.850;6.970;2024-01-25T02:01:24;6.30;99.90
52203;DHT22;38173;52.850;6.970;2024-01-25T02:03:50;6.20;99.90
52203;DHT22;38173;52.850;6.970;2024-01-25T02:06:15;6.10;99.90
52203;DHT22;38173;52.850;6.970;2024-01-25T02:08:41;6.10;99.90
52203;DHT22;38173;52.850;6.970;2024-01-25T02:11:07;6.10;99.90
52203;DHT22;38173;52.850;6.970;2024-01-25T02:13:34;6.00;99.90
52203;DHT22;38173;52.850;6.970;2024-01-25T02:16:00;5.90;99.90
52203;DHT22;38173;52.850;6.970;2024-01-25T02:18:26;5.90;99.90
52203;DHT22;38173;52.850;6.970;2024-01-25T02:20:52;5.90;99.90
52203;DHT22;38173;52.850;6.970;2024-01-25T02:23:17;5.80;99.90
52203;DHT22;38173;52.850;6.970;2024-01-25T02:25:43;5.80;99.90
52203;DHT22;38173;52.850;6.970;2024-01-25T02:28:09;5.80;99.90
52203;DHT22;38173;52.850;6.970;2024-01-25T02:30:34;5.80;99.90
52203;DHT22;38173;52.850;6.970;2024-01-25T02:33:00;5.70;99.90
52203;DHT22;38173;52.850;6.970;2024-01-25T02:35:25;5.70;99.90
52203;DHT22;38173;52.850;6.970;2024-01-25T02:37:51;5.70;99.90
52203;DHT22;38173;52.850;6.970;2024-01-25T02:40:20;5.70;99.90
52203;DHT22;38173;52.850;6.970;2024-01-25T02:42:45;5.60;99.90
52203;DHT22;38173;52.850;6.970;2024-01-25T02:45:11;5.70;99.90
52203;DHT22;38173;52.850;6.970;2024-01-25T02:47:37;5.60;99.90
52203;DHT22;38173;52.850;6.970;2024-01-25T02:50:05;5.60;99.90
52203;DHT22;38173;52.850;6.970;2024-01-25T02:52:34;5.50;99.90
52203;DHT22;38173;52.850;6.970;2024-01-25T02:55:00;5.50;99.90
52203;DHT22;38173;52.850;6.970;2024-01-25T02:57:25;5.40;99.90
52203;DHT22;38173;52.850;6.970;2024-01-25T02:59:51;5.40;99.90
52203;DHT22;38173;52.850;6.970;2024-01-25T03:02:17;5.40;99.90
52203;DHT22;38173;52.850;6.970;2024-01-25T03:04:45;5.40;99.90
52203;DHT22;38173;52.850;6.970;2024-01-25T03:07:11;5.30;99.90
52203;DHT22;38173;52.850;6.970;2024-01-25T03:09:37;5.30;99.90
52203;DHT22;38173;52.850;6.970;2024-01-25T03:12:02;5.20;99.90
52203;DHT22;38173;52.850;6.970;2024-01-25T03:14:28;5.20;99.90
52203;DHT22;38173;52.850;6.970;2024-01-25T03:16:54;5.10;99.90
52203;DHT22;38173;52.850;6.970;2024-01-25T03:19:19;5.10;99.90
52203;DHT22;38173;52.850;6.970;2024-01-25T03:21:45;5.00;99.90
52203;DHT22;38173;52.850;6.970;2024-01-25T03:24:11;5.00;99.90
52203;DHT22;38173;52.850;6.970;2024-01-25T03:26:36;5.00;99.90
52203;DHT22;38173;52.850;6.970;2024-01-25T03:29:02;5.00;99.90
52203;DHT22;38173;52.850;6.970;2024-01-25T03:31:28;4.90;99.90
52203;DHT22;38173;52.850;6.970;2024-01-25T03:33:53;4.90;99.90
52203;DHT22;38173;52.850;6.970;2024-01-25T03:36:19;4.80;99.90
52203;DHT22;38173;52.850;6.970;2024-01-25T03:38:45;4.80;99.90
52203;DHT22;38173;52.850;6.970;2024-01-25T03:41:10;4.80;99.90
52203;DHT22;38173;52.850;6.970;2024-01-25T03:43:36;4.80;99.90
52203;DHT22;38173;52.850;6.970;2024-01-25T03:46:02;4.70;99.90
52203;DHT22;38173;52.850;6.970;2024-01-25T03:48:28;4.80;99.90
52203;DHT22;38173;52.850;6.970;2024-01-25T03:50:54;4.80;99.90
52203;DHT22;38173;52.850;6.970;2024-01-25T03:53:23;4.70;99.90
52203;DHT22;38173;52.850;6.970;2024-01-25T03:55:48;4.70;99.90
52203;DHT22;38173;52.850;6.970;2024-01-25T03:58:16;4.70;99.90
52203;DHT22;38173;52.850;6.970;2024-01-25T04:00:42;4.70;99.90
52203;DHT22;38173;52.850;6.970;2024-01-25T04:03:07;4.70;99.90
52203;DHT22;38173;52.850;6.970;2024-01-25T04:05:33;4.70;99.90
52203;DHT22;38173;52.850;6.970;2024-01-25T04:07:59;4.60;99.90
52203;DHT22;38173;52.850;6.970;2024-01-25T04:10:25;4.60;99.90
52203;DHT22;38173;52.850;6.970;2024-01-25T04:12:51;4.60;99.90
52203;DHT22;38173;52.850;6.970;2024-01-25T04:15:16;4.60;99.90
52203;DHT22;38173;52.850;6.970;2024-01-25T04:17:42;4.60;99.90
52203;DHT22;38173;52.850;6.970;2024-01-25T04:20:08;4.50;99.90
52203;DHT22;38173;52.850;6.970;2024-01-25T04:22:35;4.50;99.90
52203;DHT22;38173;52.850;6.970;2024-01-25T04:25:00;4.50;99.90
52203;DHT22;38173;52.850;6.970;2024-01-25T04:27:26;4.50;99.90
52203;DHT22;38173;52.850;6.970;2024-01-25T04:29:52;4.40;99.90
52203;DHT22;38173;52.850;6.970;2024-01-25T04:32:18;4.40;99.90
52203;DHT22;38173;52.850;6.970;2024-01-25T04:34:44;4.40;99.90
52203;DHT22;38173;52.850;6.970;2024-01-25T04:37:09;4.30;99.90
52203;DHT22;38173;52.850;6.970;2024-01-25T04:39:35;4.30;99.90
52203;DHT22;38173;52.850;6.970;2024-01-25T04:42:01;4.30;99.90
52203;DHT22;38173;52.850;6.970;2024-01-25T04:44:26;4.30;99.90
52203;DHT22;38173;52.850;6.970;2024-01-25T04:46:52;4.30;99.90
52203;DHT22;38173;52.850;6.970;2024-01-25T04:49:19;4.30;99.90
52203;DHT22;38173;52.850;6.970;2024-01-25T04:51:45;4.30;99.90
52203;DHT22;38173;52.850;6.970;2024-01-25T04:54:10;4.30;99.90
52203;DHT22;38173;52.850;6.970;2024-01-25T04:56:38;4.30;99.90
52203;DHT22;38173;52.850;6.970;2024-01-25T04:59:04;4.30;99.90
52203;DHT22;38173;52.850;6.970;2024-01-25T05:01:29;4.30;99.90
52203;DHT22;38173;52.850;6.970;2024-01-25T05:03:57;4.30;99.90
52203;DHT22;38173;52.850;6.970;2024-01-25T05:06:26;4.30;99.90
52203;DHT22;38173;52.850;6.970;2024-01-25T05:08:52;4.40;99.90
52203;DHT22;38173;52.850;6.970;2024-01-25T05:11:18;4.30;99.90
52203;DHT22;38173;52.850;6.970;2024-01-25T05:13:44;4.30;99.90
52203;DHT22;38173;52.850;6.970;2024-01-25T05:16:10;4.30;99.90
52203;DHT22;38173;52.850;6.970;2024-01-25T05:18:36;4.30;99.90
52203;DHT22;38173;52.850;6.970;2024-01-25T05:21:02;4.20;99.90
52203;DHT22;38173;52.850;6.970;2024-01-25T05:23:27;4.20;99.90
52203;DHT22;38173;52.850;6.970;2024-01-25T05:25:53;4.20;99.90
52203;DHT22;38173;52.850;6.970;2024-01-25T05:28:19;4.20;99.90
52203;DHT22;38173;52.850;6.970;2024-01-25T05:30:45;4.20;99.90
52203;DHT22;38173;52.850;6.970;2024-01-25T05:33:10;4.20;99.90
52203;DHT22;38173;52.850;6.970;2024-01-25T05:35:36;4.10;99.90
52203;DHT22;38173;52.850;6.970;2024-01-25T05:38:01;4.10;99.90
52203;DHT22;38173;52.850;6.970;2024-01-25T05:40:27;4.10;99.90
52203;DHT22;38173;52.850;6.970;2024-01-25T05:42:53;4.10;99.90
52203;DHT22;38173;52.850;6.970;2024-01-25T05:45:18;4.10;99.90
52203;DHT22;38173;52.850;6.970;2024-01-25T05:47:46;4.10;99.90
52203;DHT22;38173;52.850;6.970;2024-01-25T05:50:12;4.10;99.90
52203;DHT22;38173;52.850;6.970;2024-01-25T05:52:37;4.00;99.90
52203;DHT22;38173;52.850;6.970;2024-01-25T05:55:07;4.00;99.90
52203;DHT22;38173;52.850;6.970;2024-01-25T05:57:35;4.00;99.90
52203;DHT22;38173;52.850;6.970;2024-01-25T06:00:01;3.90;99.90
52203;DHT22;38173;52.850;6.970;2024-01-25T06:02:27;3.90;99.90
52203;DHT22;38173;52.850;6.970;2024-01-25T06:04:53;3.90;99.90
52203;DHT22;38173;52.850;6.970;2024-01-25T06:07:18;3.90;99.90
52203;DHT22;38173;52.850;6.970;2024-01-25T06:09:45;3.90;99.90
52203;DHT22;38173;52.850;6.970;2024-01-25T06:12:11;3.90;99.90
52203;DHT22;38173;52.850;6.970;2024-01-25T06:14:37;3.80;99.90
52203;DHT22;38173;52.850;6.970;2024-01-25T06:17:02;3.90;99.90
52203;DHT22;38173;52.850;6.970;2024-01-25T06:19:28;3.90;99.90
52203;DHT22;38173;52.850;6.970;2024-01-25T06:21:54;3.90;99.90
52203;DHT22;38173;52.850;6.970;2024-01-25T06:24:19;3.90;99.90
52203;DHT22;38173;52.850;6.970;2024-01-25T06:26:45;3.90;99.90
52203;DHT22;38173;52.850;6.970;2024-01-25T06:29:12;3.80;99.90
52203;DHT22;38173;52.850;6.970;2024-01-25T06:31:44;3.80;99.90
52203;DHT22;38173;52.850;6.970;2024-01-25T06:34:10;3.80;99.90
52203;DHT22;38173;52.850;6.970;2024-01-25T06:36:36;3.80;99.90
52203;DHT22;38173;52.850;6.970;2024-01-25T06:39:02;3.80;99.90
52203;DHT22;38173;52.850;6.970;2024-01-25T06:41:29;3.80;99.90
52203;DHT22;38173;52.850;6.970;2024-01-25T06:43:55;3.80;99.90
52203;DHT22;38173;52.850;6.970;2024-01-25T06:46:21;3.80;99.90
52203;DHT22;38173;52.850;6.970;2024-01-25T06:48:47;3.80;99.90
52203;DHT22;38173;52.850;6.970;2024-01-25T06:51:12;3.70;99.90
52203;DHT22;38173;52.850;6.970;2024-01-25T06:53:39;3.70;99.90
52203;DHT22;38173;52.850;6.970;2024-01-25T06:56:05;3.70;99.90
52203;DHT22;38173;52.850;6.970;2024-01-25T06:58:32;3.70;99.90
52203;DHT22;38173;52.850;6.970;2024-01-25T07:00:57;3.60;99.90
52203;DHT22;38173;52.850;6.970;2024-01-25T07:03:23;3.70;99.90
52203;DHT22;38173;52.850;6.970;2024-01-25T07:05:48;3.70;99.90
52203;DHT22;38173;52.850;6.970;2024-01-25T07:08:17;3.70;99.90
52203;DHT22;38173;52.850;6.970;2024-01-25T07:10:44;3.70;99.90
52203;DHT22;38173;52.850;6.970;2024-01-25T07:13:10;3.70;99.90
52203;DHT22;38173;52.850;6.970;2024-01-25T07:15:35;3.70;99.90
52203;DHT22;38173;52.850;6.970;2024-01-25T07:18:01;3.70;99.90
52203;DHT22;38173;52.850;6.970;2024-01-25T07:20:27;3.70;99.90
52203;DHT22;38173;52.850;6.970;2024-01-25T07:22:53;3.60;99.90
52203;DHT22;38173;52.850;6.970;2024-01-25T07:25:18;3.60;99.90
52203;DHT22;38173;52.850;6.970;2024-01-25T07:27:45;3.60;99.90
52203;DHT22;38173;52.850;6.970;2024-01-25T07:30:11;3.60;99.90
52203;DHT22;38173;52.850;6.970;2024-01-25T07:32:38;3.70;99.90
52203;DHT22;38173;52.850;6.970;2024-01-25T07:35:05;3.70;99.90
52203;DHT22;38173;52.850;6.970;2024-01-25T07:37:31;3.60;99.90
52203;DHT22;38173;52.850;6.970;2024-01-25T07:39:56;3.60;99.90
52203;DHT22;38173;52.850;6.970;2024-01-25T07:42:22;3.60;99.90
52203;DHT22;38173;52.850;6.970;2024-01-25T07:44:48;3.60;99.90
52203;DHT22;38173;52.850;6.970;2024-01-25T07:47:14;3.60;99.90
52203;DHT22;38173;52.850;6.970;2024-01-25T07:49:43;3.60;99.90
52203;DHT22;38173;52.850;6.970;2024-01-25T07:52:08;3.60;99.90
52203;DHT22;38173;52.850;6.970;2024-01-25T07:54:34;3.70;99.90
52203;DHT22;38173;52.850;6.970;2024-01-25T07:57:00;3.70;99.90
52203;DHT22;38173;52.850;6.970;2024-01-25T07:59:25;3.70;99.90
52203;DHT22;38173;52.850;6.970;2024-01-25T08:01:51;3.70;99.90
52203;DHT22;38173;52.850;6.970;2024-01-25T08:04:17;3.80;99.90
52203;DHT22;38173;52.850;6.970;2024-01-25T08:06:42;3.80;99.90
52203;DHT22;38173;52.850;6.970;2024-01-25T08:09:08;3.80;99.90
52203;DHT22;38173;52.850;6.970;2024-01-25T08:11:34;3.80;99.90
52203;DHT22;38173;52.850;6.970;2024-01-25T08:14:00;3.90;99.90
52203;DHT22;38173;52.850;6.970;2024-01-25T08:16:26;3.90;99.90
52203;DHT22;38173;52.850;6.970;2024-01-25T08:18:52;3.90;99.90
52203;DHT22;38173;52.850;6.970;2024-01-25T08:21:17;3.90;99.90
52203;DHT22;38173;52.850;6.970;2024-01-25T08:23:43;4.00;99.90
52203;DHT22;38173;52.850;6.970;2024-01-25T08:26:09;4.00;99.90
52203;DHT22;38173;52.850;6.970;2024-01-25T08:28:43;4.10;99.90
52203;DHT22;38173;52.850;6.970;2024-01-25T08:31:10;4.10;99.90
52203;DHT22;38173;52.850;6.970;2024-01-25T08:33:36;4.10;99.90
52203;DHT22;38173;52.850;6.970;2024-01-25T08:36:05;4.10;99.90
52203;DHT22;38173;52.850;6.970;2024-01-25T08:38:32;4.10;99.90
52203;DHT22;38173;52.850;6.970;2024-01-25T08:40:57;4.10;99.90
52203;DHT22;38173;52.850;6.970;2024-01-25T08:43:24;4.10;99.90
52203;DHT22;38173;52.850;6.970;2024-01-25T08:45:49;4.20;99.90
52203;DHT22;38173;52.850;6.970;2024-01-25T08:48:15;4.20;99.90
52203;DHT22;38173;52.850;6.970;2024-01-25T08:50:41;4.20;99.90
52203;DHT22;38173;52.850;6.970;2024-01-25T08:53:06;4.20;99.90
52203;DHT22;38173;52.850;6.970;2024-01-25T08:55:32;4.30;99.90
52203;DHT22;38173;52.850;6.970;2024-01-25T08:57:58;4.20;99.90
52203;DHT22;38173;52.850;6.970;2024-01-25T09:00:23;4.30;99.90
52203;DHT22;38173;52.850;6.970;2024-01-25T09:02:49;4.30;99.90
52203;DHT22;38173;52.850;6.970;2024-01-25T09:05:14;4.30;99.90
52203;DHT22;38173;52.850;6.970;2024-01-25T09:07:43;4.30;99.90
52203;DHT22;38173;52.850;6.970;2024-01-25T09:10:11;4.30;99.90
52203;DHT22;38173;52.850;6.970;2024-01-25T09:12:37;4.30;99.90
52203;DHT22;38173;52.850;6.970;2024-01-25T09:15:03;4.40;99.90
52203;DHT22;38173;52.850;6.970;2024-01-25T09:17:29;4.40;99.90
52203;DHT22;38173;52.850;6.970;2024-01-25T09:19:54;4.40;99.90
52203;DHT22;38173;52.850;6.970;2024-01-25T09:22:24;4.50;99.90
52203;DHT22;38173;52.850;6.970;2024-01-25T09:24:49;4.50;99.90
52203;DHT22;38173;52.850;6.970;2024-01-25T09:27:15;4.60;99.90
52203;DHT22;38173;52.850;6.970;2024-01-25T09:29:41;4.70;99.90
52203;DHT22;38173;52.850;6.970;2024-01-25T09:32:08;4.70;99.90
52203;DHT22;38173;52.850;6.970;2024-01-25T09:34:38;4.80;99.90
52203;DHT22;38173;52.850;6.970;2024-01-25T09:37:04;4.80;99.90
52203;DHT22;38173;52.850;6.970;2024-01-25T09:39:31;4.80;99.90
52203;DHT22;38173;52.850;6.970;2024-01-25T09:41:57;4.90;99.90
52203;DHT22;38173;52.850;6.970;2024-01-25T09:44:23;5.00;99.90
52203;DHT22;38173;52.850;6.970;2024-01-25T09:46:50;5.10;99.90
52203;DHT22;38173;52.850;6.970;2024-01-25T09:49:16;5.00;99.90
52203;DHT22;38173;52.850;6.970;2024-01-25T09:51:43;5.10;99.90
52203;DHT22;38173;52.850;6.970;2024-01-25T09:54:09;5.10;99.90
52203;DHT22;38173;52.850;6.970;2024-01-25T09:56:35;5.20;99.90
52203;DHT22;38173;52.850;6.970;2024-01-25T09:59:02;5.20;99.90
52203;DHT22;38173;52.850;6.970;2024-01-25T10:01:28;5.20;99.90
52203;DHT22;38173;52.850;6.970;2024-01-25T10:03:54;5.30;99.90
52203;DHT22;38173;52.850;6.970;2024-01-25T10:06:23;5.30;99.90
52203;DHT22;38173;52.850;6.970;2024-01-25T10:08:49;5.30;99.90
52203;DHT22;38173;52.850;6.970;2024-01-25T10:11:15;5.40;99.90
52203;DHT22;38173;52.850;6.970;2024-01-25T10:13:45;5.30;99.90
52203;DHT22;38173;52.850;6.970;2024-01-25T10:16:15;5.40;99.90
52203;DHT22;38173;52.850;6.970;2024-01-25T10:18:42;5.40;99.90
52203;DHT22;38173;52.850;6.970;2024-01-25T10:21:12;5.50;99.90
52203;DHT22;38173;52.850;6.970;2024-01-25T10:23:39;5.60;99.90
52203;DHT22;38173;52.850;6.970;2024-01-25T10:26:04;5.60;99.90
52203;DHT22;38173;52.850;6.970;2024-01-25T10:28:30;5.60;99.90
52203;DHT22;38173;52.850;6.970;2024-01-25T10:30:59;5.60;99.90
52203;DHT22;38173;52.850;6.970;2024-01-25T10:33:26;5.70;99.90
52203;DHT22;38173;52.850;6.970;2024-01-25T10:35:55;5.70;99.90
52203;DHT22;38173;52.850;6.970;2024-01-25T10:38:31;5.70;99.90
52203;DHT22;38173;52.850;6.970;2024-01-25T10:41:03;5.70;99.90
52203;DHT22;38173;52.850;6.970;2024-01-25T10:43:29;5.70;99.90
52203;DHT22;38173;52.850;6.970;2024-01-25T10:45:59;5.80;99.90
52203;DHT22;38173;52.850;6.970;2024-01-25T10:48:25;5.90;99.90
52203;DHT22;38173;52.850;6.970;2024-01-25T10:50:55;6.00;99.90
52203;DHT22;38173;52.850;6.970;2024-01-25T10:53:23;6.10;99.90
52203;DHT22;38173;52.850;6.970;2024-01-25T10:55:49;6.20;99.90
52203;DHT22;38173;52.850;6.970;2024-01-25T10:58:16;6.40;99.90
52203;DHT22;38173;52.850;6.970;2024-01-25T11:00:50;6.60;99.90
52203;DHT22;38173;52.850;6.970;2024-01-25T11:03:18;6.80;99.90
52203;DHT22;38173;52.850;6.970;2024-01-25T11:05:46;6.90;99.90
52203;DHT22;38173;52.850;6.970;2024-01-25T11:08:19;7.00;99.90
52203;DHT22;38173;52.850;6.970;2024-01-25T11:10:51;7.10;99.90
52203;DHT22;38173;52.850;6.970;2024-01-25T11:13:23;7.30;99.90
52203;DHT22;38173;52.850;6.970;2024-01-25T11:15:50;7.40;99.90
52203;DHT22;38173;52.850;6.970;2024-01-25T11:18:17;7.40;99.90
52203;DHT22;38173;52.850;6.970;2024-01-25T11:20:42;7.40;99.90
52203;DHT22;38173;52.850;6.970;2024-01-25T11:23:15;7.40;99.90
52203;DHT22;38173;52.850;6.970;2024-01-25T11:25:45;7.40;99.90
52203;DHT22;38173;52.850;6.970;2024-01-25T11:28:14;7.50;99.90
52203;DHT22;38173;52.850;6.970;2024-01-25T11:30:41;7.50;99.90
52203;DHT22;38173;52.850;6.970;2024-01-25T11:33:07;7.70;99.90
52203;DHT22;38173;52.850;6.970;2024-01-25T11:35:33;7.90;99.90
52203;DHT22;38173;52.850;6.970;2024-01-25T11:37:59;8.10;99.90
52203;DHT22;38173;52.850;6.970;2024-01-25T11:40:25;8.10;99.90
52203;DHT22;38173;52.850;6.970;2024-01-25T11:42:53;8.20;99.90
52203;DHT22;38173;52.850;6.970;2024-01-25T11:45:19;8.20;99.90
52203;DHT22;38173;52.850;6.970;2024-01-25T11:47:44;8.30;99.90
52203;DHT22;38173;52.850;6.970;2024-01-25T11:50:12;8.30;99.90
52203;DHT22;38173;52.850;6.970;2024-01-25T11:52:38;8.30;99.90
52203;DHT22;38173;52.850;6.970;2024-01-25T11:55:08;8.30;99.90
52203;DHT22;38173;52.850;6.970;2024-01-25T11:57:36;8.20;99.90
52203;DHT22;38173;52.850;6.970;2024-01-25T12:00:04;8.20;99.90
52203;DHT22;38173;52.850;6.970;2024-01-25T12:02:31;8.10;99.90
52203;DHT22;38173;52.850;6.970;2024-01-25T12:04:57;8.00;99.90
52203;DHT22;38173;52.850;6.970;2024-01-25T12:07:23;8.00;99.90
52203;DHT22;38173;52.850;6.970;2024-01-25T12:10:06;8.00;99.90
52203;DHT22;38173;52.850;6.970;2024-01-25T12:12:32;7.90;99.90
52203;DHT22;38173;52.850;6.970;2024-01-25T12:15:01;7.80;99.90
52203;DHT22;38173;52.850;6.970;2024-01-25T12:17:29;7.90;99.90
52203;DHT22;38173;52.850;6.970;2024-01-25T12:19:59;7.90;99.90
52203;DHT22;38173;52.850;6.970;2024-01-25T12:22:29;7.90;99.90
52203;DHT22;38173;52.850;6.970;2024-01-25T12:24:55;7.90;99.90
52203;DHT22;38173;52.850;6.970;2024-01-25T12:27:22;7.90;99.90
52203;DHT22;38173;52.850;6.970;2024-01-25T12:29:51;7.90;99.90
52203;DHT22;38173;52.850;6.970;2024-01-25T12:32:22;7.80;99.90
52203;DHT22;38173;52.850;6.970;2024-01-25T12:34:59;7.90;99.90
52203;DHT22;38173;52.850;6.970;2024-01-25T12:37:27;7.80;99.90
52203;DHT22;38173;52.850;6.970;2024-01-25T12:39:54;7.90;99.90
52203;DHT22;38173;52.850;6.970;2024-01-25T12:42:23;7.90;99.90
52203;DHT22;38173;52.850;6.970;2024-01-25T12:44:53;8.00;99.90
52203;DHT22;38173;52.850;6.970;2024-01-25T12:47:20;8.00;99.90
52203;DHT22;38173;52.850;6.970;2024-01-25T12:49:45;8.10;99.90
52203;DHT22;38173;52.850;6.970;2024-01-25T12:52:13;8.10;99.90
52203;DHT22;38173;52.850;6.970;2024-01-25T12:54:39;8.20;99.90
52203;DHT22;38173;52.850;6.970;2024-01-25T12:57:05;8.20;99.90
52203;DHT22;38173;52.850;6.970;2024-01-25T12:59:32;8.20;99.90
52203;DHT22;38173;52.850;6.970;2024-01-25T13:01:57;8.10;99.90
52203;DHT22;38173;52.850;6.970;2024-01-25T13:04:23;8.10;99.90
52203;DHT22;38173;52.850;6.970;2024-01-25T13:06:52;8.10;99.90
52203;DHT22;38173;52.850;6.970;2024-01-25T13:09:18;8.00;99.90
52203;DHT22;38173;52.850;6.970;2024-01-25T13:11:43;8.00;99.90
52203;DHT22;38173;52.850;6.970;2024-01-25T13:14:09;7.90;99.90
52203;DHT22;38173;52.850;6.970;2024-01-25T13:16:35;7.80;99.90
52203;DHT22;38173;52.850;6.970;2024-01-25T13:19:00;7.70;99.90
52203;DHT22;38173;52.850;6.970;2024-01-25T13:21:26;7.70;99.90
52203;DHT22;38173;52.850;6.970;2024-01-25T13:23:51;7.70;99.90
52203;DHT22;38173;52.850;6.970;2024-01-25T13:26:17;7.60;99.90
52203;DHT22;38173;52.850;6.970;2024-01-25T13:28:43;7.60;99.90
52203;DHT22;38173;52.850;6.970;2024-01-25T13:31:08;7.60;99.90
52203;DHT22;38173;52.850;6.970;2024-01-25T13:33:34;7.60;99.90
52203;DHT22;38173;52.850;6.970;2024-01-25T13:36:00;7.60;99.90
52203;DHT22;38173;52.850;6.970;2024-01-25T13:38:25;7.70;99.90
52203;DHT22;38173;52.850;6.970;2024-01-25T13:40:51;7.70;99.90
52203;DHT22;38173;52.850;6.970;2024-01-25T13:43:17;7.70;99.90
52203;DHT22;38173;52.850;6.970;2024-01-25T13:45:42;7.70;99.90
52203;DHT22;38173;52.850;6.970;2024-01-25T13:48:08;7.70;99.90
52203;DHT22;38173;52.850;6.970;2024-01-25T13:50:33;7.70;99.90
52203;DHT22;38173;52.850;6.970;2024-01-25T13:52:59;7.80;99.90
52203;DHT22;38173;52.850;6.970;2024-01-25T13:55:25;7.70;99.90
52203;DHT22;38173;52.850;6.970;2024-01-25T13:57:50;7.70;99.90
52203;DHT22;38173;52.850;6.970;2024-01-25T14:00:16;7.60;99.90
52203;DHT22;38173;52.850;6.970;2024-01-25T14:02:42;7.60;99.90
52203;DHT22;38173;52.850;6.970;2024-01-25T14:05:11;7.60;99.90
52203;DHT22;38173;52.850;6.970;2024-01-25T14:07:37;7.60;99.90
52203;DHT22;38173;52.850;6.970;2024-01-25T14:10:02;7.50;99.90
52203;DHT22;38173;52.850;6.970;2024-01-25T14:12:28;7.50;99.90
52203;DHT22;38173;52.850;6.970;2024-01-25T14:14:54;7.50;99.90
52203;DHT22;38173;52.850;6.970;2024-01-25T14:17:19;7.50;99.90
52203;DHT22;38173;52.850;6.970;2024-01-25T14:19:49;7.40;99.90
52203;DHT22;38173;52.850;6.970;2024-01-25T14:22:15;7.40;99.90
52203;DHT22;38173;52.850;6.970;2024-01-25T14:24:42;7.40;99.90
52203;DHT22;38173;52.850;6.970;2024-01-25T14:27:08;7.40;99.90
52203;DHT22;38173;52.850;6.970;2024-01-25T14:29:36;7.40;99.90
52203;DHT22;38173;52.850;6.970;2024-01-25T14:32:03;7.40;99.90
52203;DHT22;38173;52.850;6.970;2024-01-25T14:34:29;7.40;99.90
52203;DHT22;38173;52.850;6.970;2024-01-25T14:36:54;7.40;99.90
52203;DHT22;38173;52.850;6.970;2024-01-25T14:39:20;7.40;99.90
52203;DHT22;38173;52.850;6.970;2024-01-25T14:41:46;7.40;99.90
52203;DHT22;38173;52.850;6.970;2024-01-25T14:44:11;7.40;99.90
52203;DHT22;38173;52.850;6.970;2024-01-25T14:46:37;7.30;99.90
52203;DHT22;38173;52.850;6.970;2024-01-25T14:49:03;7.30;99.90
52203;DHT22;38173;52.850;6.970;2024-01-25T14:51:29;7.20;99.90
52203;DHT22;38173;52.850;6.970;2024-01-25T14:53:55;7.10;99.90
52203;DHT22;38173;52.850;6.970;2024-01-25T14:56:22;7.10;99.90
52203;DHT22;38173;52.850;6.970;2024-01-25T14:58:47;7.00;99.90
52203;DHT22;38173;52.850;6.970;2024-01-25T15:01:14;7.00;99.90
52203;DHT22;38173;52.850;6.970;2024-01-25T15:03:44;6.90;99.90
52203;DHT22;38173;52.850;6.970;2024-01-25T15:06:11;6.80;99.90
52203;DHT22;38173;52.850;6.970;2024-01-25T15:08:37;6.80;99.90
52203;DHT22;38173;52.850;6.970;2024-01-25T15:11:02;6.70;99.90
52203;DHT22;38173;52.850;6.970;2024-01-25T15:13:28;6.70;99.90
52203;DHT22;38173;52.850;6.970;2024-01-25T15:15:54;6.80;99.90
52203;DHT22;38173;52.850;6.970;2024-01-25T15:18:20;6.70;99.90
52203;DHT22;38173;52.850;6.970;2024-01-25T15:20:47;6.70;99.90
52203;DHT22;38173;52.850;6.970;2024-01-25T15:23:13;6.70;99.90
52203;DHT22;38173;52.850;6.970;2024-01-25T15:25:39;6.70;99.90
52203;DHT22;38173;52.850;6.970;2024-01-25T15:28:05;6.60;99.90
52203;DHT22;38173;52.850;6.970;2024-01-25T15:30:31;6.70;99.90
52203;DHT22;38173;52.850;6.970;2024-01-25T15:32:56;6.60;99.90
52203;DHT22;38173;52.850;6.970;2024-01-25T15:35:23;6.60;99.90
52203;DHT22;38173;52.850;6.970;2024-01-25T15:37:48;6.60;99.90
52203;DHT22;38173;52.850;6.970;2024-01-25T15:40:15;6.60;99.90